createdAt,value
2018-06-14T00:00:01.180Z,9.00
2018-06-14T00:02:29.678Z,8.43
2018-06-14T00:04:58.188Z,8.70
2018-06-14T00:07:27.359Z,9.38
2018-06-14T00:09:55.878Z,8.57
2018-06-14T00:12:24.085Z,9.53
2018-06-14T00:14:52.554Z,8.33
2018-06-14T00:17:21.101Z,8.48
2018-06-14T00:19:50.682Z,8.80
2018-06-14T00:22:19.309Z,9.13
2018-06-14T00:24:47.657Z,8.90
2018-06-14T00:27:16.746Z,8.60
2018-06-14T00:29:45.319Z,8.23
2018-06-14T00:38:43.754Z,8.40
2018-06-14T00:41:12.251Z,8.67
2018-06-14T00:43:40.697Z,8.47
2018-06-14T00:46:09.225Z,8.10
2018-06-14T00:48:37.369Z,8.90
2018-06-14T00:51:05.839Z,8.80
2018-06-14T00:53:34.342Z,8.48
2018-06-14T00:56:02.910Z,8.13
2018-06-14T00:58:31.377Z,8.83
2018-06-14T01:01:00.222Z,7.93
2018-06-14T01:03:28.686Z,8.50
2018-06-14T01:05:57.187Z,9.10
2018-06-14T01:08:25.698Z,8.47
2018-06-14T01:10:54.204Z,8.37
2018-06-14T01:13:22.712Z,8.40
2018-06-14T01:15:51.443Z,8.10
2018-06-14T01:18:20.622Z,8.58
2018-06-14T01:20:49.841Z,8.57
2018-06-14T01:23:19.051Z,7.70
2018-06-14T01:25:47.582Z,8.60
2018-06-14T01:28:17.347Z,7.53
2018-06-14T01:30:45.865Z,8.70
2018-06-14T01:39:08.007Z,8.10
2018-06-14T01:41:36.646Z,7.50
2018-06-14T01:44:05.193Z,8.87
2018-06-14T01:46:34.248Z,8.25
2018-06-14T01:49:02.722Z,9.00
2018-06-14T01:51:31.190Z,8.17
2018-06-14T01:53:59.694Z,8.53
2018-06-14T01:56:28.166Z,8.93
2018-06-14T01:58:56.662Z,9.17
2018-06-14T02:01:25.410Z,9.20
2018-06-14T02:03:53.907Z,8.43
2018-06-14T02:06:22.378Z,9.33
2018-06-14T02:08:50.897Z,8.77
2018-06-14T02:11:19.414Z,9.63
2018-06-14T02:13:47.559Z,9.30
2018-06-14T02:16:16.381Z,10.20
2018-06-14T02:18:44.846Z,9.38
2018-06-14T02:21:14.193Z,9.77
2018-06-14T02:23:43.305Z,10.30
2018-06-14T02:26:11.796Z,10.00
2018-06-14T02:28:40.281Z,9.93
2018-06-14T02:31:08.774Z,9.60
2018-06-14T02:33:37.243Z,9.17
2018-06-14T02:36:05.810Z,9.23
2018-06-14T02:38:34.646Z,11.73
2018-06-14T02:41:02.861Z,9.20
2018-06-14T02:43:31.702Z,10.10
2018-06-14T02:46:00.863Z,9.57
2018-06-14T02:48:29.366Z,10.10
2018-06-14T02:50:57.863Z,10.40
2018-06-14T02:53:26.350Z,10.00
2018-06-14T02:55:54.559Z,9.53
2018-06-14T02:58:23.041Z,9.57
2018-06-14T03:00:51.523Z,10.43
2018-06-14T03:03:20.007Z,10.23
2018-06-14T03:05:48.470Z,10.50
2018-06-14T03:08:17.389Z,9.90
2018-06-14T03:10:45.887Z,9.75
2018-06-14T03:29:39.978Z,10.97
2018-06-14T03:32:09.817Z,9.73
2018-06-14T03:34:38.319Z,8.83
2018-06-14T03:37:06.798Z,9.30
2018-06-14T03:39:35.258Z,8.37
2018-06-14T03:42:07.261Z,9.90
2018-06-14T03:44:37.046Z,9.10
2018-06-14T03:47:07.006Z,8.67
2018-06-14T03:49:36.178Z,7.80
2018-06-14T03:52:04.716Z,8.83
2018-06-14T03:54:33.425Z,8.40
2018-06-14T03:57:01.645Z,8.90
2018-06-14T03:59:30.097Z,10.43
2018-06-14T04:01:58.703Z,9.93
2018-06-14T04:04:27.325Z,11.60
2018-06-14T04:06:55.904Z,11.70
2018-06-14T04:09:24.463Z,10.40
2018-06-14T04:11:53.608Z,10.23
2018-06-14T04:14:22.070Z,10.37
2018-06-14T04:16:50.595Z,9.50
2018-06-14T04:19:19.147Z,9.83
2018-06-14T04:21:47.314Z,10.53
2018-06-14T04:24:16.718Z,9.30
2018-06-14T04:26:44.879Z,9.63
2018-06-14T04:29:13.358Z,9.60
2018-06-14T04:31:41.807Z,9.50
2018-06-14T04:34:11.255Z,10.80
2018-06-14T04:36:42.209Z,10.47
2018-06-14T04:39:11.767Z,10.43
2018-06-14T04:41:40.259Z,12.07
2018-06-14T04:44:08.742Z,10.57
2018-06-14T04:46:37.231Z,8.80
2018-06-14T04:49:05.737Z,8.93
2018-06-14T04:51:39.337Z,9.80
2018-06-14T04:54:08.120Z,8.00
2018-06-14T04:56:36.611Z,9.70
2018-06-14T04:59:05.140Z,9.63
2018-06-14T05:01:33.675Z,9.25
2018-06-14T05:04:02.167Z,8.07
2018-06-14T05:06:30.727Z,7.60
2018-06-14T05:08:59.231Z,8.00
2018-06-14T05:11:27.734Z,8.03
2018-06-14T05:13:56.243Z,7.80
2018-06-14T05:16:25.313Z,6.90
2018-06-14T05:18:53.911Z,7.17
2018-06-14T05:21:22.367Z,7.13
2018-06-14T05:23:50.942Z,7.30
2018-06-14T05:26:19.404Z,6.75
2018-06-14T05:28:47.851Z,7.57
2018-06-14T05:31:17.477Z,6.67
2018-06-14T05:33:45.755Z,6.87
2018-06-14T05:46:06.455Z,6.60
2018-06-14T05:48:35.829Z,6.03
2018-06-14T05:51:04.318Z,5.90
2018-06-14T05:53:32.815Z,5.60
2018-06-14T05:56:01.316Z,7.07
2018-06-14T05:58:29.914Z,5.43
2018-06-14T06:00:58.400Z,5.23
2018-06-14T06:03:26.953Z,5.20
2018-06-14T06:05:55.406Z,4.83
2018-06-14T06:08:24.446Z,5.00
2018-06-14T06:10:53.034Z,5.10
2018-06-14T06:13:21.530Z,5.40
2018-06-14T06:15:50.080Z,5.40
2018-06-14T06:18:18.546Z,5.13
2018-06-14T06:20:47.136Z,4.80
2018-06-14T06:23:18.620Z,4.05
2018-06-14T06:25:47.087Z,4.50
2018-06-14T06:28:17.674Z,4.40
2018-06-14T06:30:46.980Z,4.10
2018-06-14T06:51:20.979Z,4.15
2018-06-14T06:53:49.419Z,4.17
2018-06-14T06:56:17.859Z,4.10
2018-06-14T06:58:46.445Z,4.23
2018-06-14T07:11:49.095Z,4.35
2018-06-14T07:14:17.799Z,4.30
2018-06-14T07:16:46.274Z,5.27
2018-06-14T07:27:01.411Z,5.43
2018-06-14T07:29:29.882Z,4.57
2018-06-14T07:31:59.206Z,4.30
2018-06-14T07:34:27.822Z,5.03
2018-06-14T07:36:56.383Z,4.70
2018-06-14T07:39:24.582Z,5.00
2018-06-14T07:41:53.495Z,4.73
2018-06-14T07:44:21.956Z,5.17
2018-06-14T07:46:50.403Z,4.78
2018-06-14T07:49:19.402Z,5.03
2018-06-14T07:51:48.036Z,4.67
2018-06-14T07:54:17.170Z,4.65
2018-06-14T07:56:46.579Z,5.13
2018-06-14T08:26:40.692Z,4.40
2018-06-14T08:34:13.280Z,2.60
2018-06-14T08:36:41.747Z,2.60
2018-06-14T08:39:10.435Z,3.53
2018-06-14T08:41:39.144Z,3.77
2018-06-14T08:44:08.662Z,4.50
2018-06-14T08:46:37.145Z,3.80
2018-06-14T08:49:06.228Z,3.53
2018-06-14T08:51:34.727Z,2.70
2018-06-14T08:54:03.199Z,3.03
2018-06-14T08:56:31.703Z,3.23
2018-06-14T08:59:00.194Z,2.97
2018-06-14T09:01:28.718Z,2.90
2018-06-14T09:03:57.264Z,2.50
2018-06-14T09:06:25.807Z,2.70
2018-06-14T09:08:54.283Z,3.77
2018-06-14T09:11:23.366Z,2.80
2018-06-14T09:13:51.834Z,3.07
2018-06-14T09:16:20.278Z,2.33
2018-06-14T09:18:49.102Z,2.60
2018-06-14T09:21:17.587Z,2.50
2018-06-14T09:23:46.035Z,2.77
2018-06-14T09:43:53.072Z,2.90
2018-06-14T09:46:23.644Z,3.00
2018-06-14T09:48:58.363Z,3.27
2018-06-14T09:51:26.850Z,2.60
2018-06-14T09:53:55.384Z,2.90
2018-06-14T09:56:23.887Z,2.93
2018-06-14T09:58:52.410Z,2.60
2018-06-14T10:01:20.555Z,2.75
2018-06-14T10:03:49.122Z,2.80
2018-06-14T10:06:17.656Z,2.70
2018-06-14T10:08:45.863Z,2.60
2018-06-14T10:17:33.668Z,3.00
2018-06-14T10:20:02.194Z,3.47
2018-06-14T10:22:30.702Z,3.43
2018-06-14T10:24:59.351Z,3.50
2018-06-14T10:27:27.884Z,4.10
2018-06-14T10:29:56.830Z,2.80
2018-06-14T10:32:25.306Z,3.08
2018-06-14T10:34:53.447Z,3.60
2018-06-14T10:37:21.979Z,3.47
2018-06-14T10:39:51.000Z,3.23
2018-06-14T10:42:19.481Z,3.17
2018-06-14T10:44:47.965Z,3.00
2018-06-14T10:47:18.326Z,3.33
2018-06-14T10:49:46.828Z,2.93
2018-06-14T11:02:47.978Z,2.92
2018-06-14T11:05:17.017Z,3.23
2018-06-14T11:07:45.490Z,3.77
2018-06-14T11:18:03.134Z,2.83
2018-06-14T11:20:31.712Z,3.25
2018-06-14T11:23:00.314Z,2.90
2018-06-14T11:25:28.588Z,2.63
2018-06-14T11:28:27.313Z,2.60
2018-06-14T11:30:56.315Z,2.70
2018-06-14T11:33:24.779Z,2.83
2018-06-14T11:35:53.283Z,2.80
2018-06-14T11:38:22.315Z,2.77
2018-06-14T11:40:50.797Z,3.00
2018-06-14T11:43:19.266Z,2.50
2018-06-14T11:45:47.787Z,2.70
2018-06-14T11:48:18.244Z,2.95
2018-06-14T11:50:46.777Z,2.80
2018-06-14T12:03:20.882Z,3.15
2018-06-14T12:05:49.802Z,3.40
2018-06-14T12:08:18.966Z,2.73
2018-06-14T12:10:47.630Z,2.50
2018-06-14T12:23:35.715Z,3.00
2018-06-14T12:26:04.185Z,3.10
2018-06-14T12:28:32.696Z,5.30
2018-06-14T12:31:01.180Z,3.80
2018-06-14T12:33:29.633Z,3.37
2018-06-14T12:35:59.017Z,2.83
2018-06-14T12:38:28.100Z,3.20
2018-06-14T12:40:57.074Z,5.87
2018-06-14T12:43:25.578Z,4.10
2018-06-14T12:45:54.495Z,3.13
2018-06-14T12:48:25.945Z,5.28
2018-06-14T12:50:55.271Z,2.90
2018-06-14T12:53:24.873Z,3.40
2018-06-14T12:55:53.560Z,3.17
2018-06-14T12:58:22.275Z,3.17
2018-06-14T13:00:51.419Z,3.08
2018-06-14T13:03:20.761Z,3.20
2018-06-14T13:05:50.226Z,3.40
2018-06-14T13:08:19.916Z,2.87
2018-06-14T13:10:49.130Z,2.43
2018-06-14T13:13:18.624Z,3.10
2018-06-14T13:15:48.002Z,4.07
2018-06-14T13:18:17.977Z,3.07
2018-06-14T13:20:46.622Z,2.50
2018-06-14T13:31:36.871Z,2.90
2018-06-14T13:34:05.568Z,3.17
2018-06-14T13:36:34.309Z,3.00
2018-06-14T13:39:02.837Z,3.00
2018-06-14T13:41:31.321Z,2.70
2018-06-14T13:43:59.826Z,3.37
2018-06-14T13:46:28.440Z,3.60
2018-06-14T13:48:57.487Z,3.40
2018-06-14T13:51:26.383Z,4.15
2018-06-14T13:53:55.663Z,3.70
2018-06-14T13:56:24.556Z,3.33
2018-06-14T13:58:53.035Z,3.70
2018-06-14T14:01:22.294Z,3.45
2018-06-14T14:03:50.874Z,3.67
2018-06-14T14:06:19.321Z,3.60
2018-06-14T14:08:47.821Z,3.70
2018-06-14T14:11:17.400Z,3.50
2018-06-14T14:13:45.884Z,3.10
2018-06-14T14:31:35.514Z,3.70
2018-06-14T14:34:04.150Z,3.20
2018-06-14T14:36:32.666Z,3.97
2018-06-14T14:39:01.325Z,4.57
2018-06-14T14:41:30.469Z,4.07
2018-06-14T14:43:59.261Z,4.03
2018-06-14T14:46:28.591Z,3.47
2018-06-14T14:48:57.086Z,3.67
2018-06-14T14:51:26.162Z,3.83
2018-06-14T14:53:54.983Z,3.80
2018-06-14T14:56:23.113Z,3.95
2018-06-14T14:58:51.633Z,3.40
2018-06-14T15:01:20.142Z,3.05
2018-06-14T15:03:48.592Z,2.90
2018-06-14T15:06:17.394Z,3.70
2018-06-14T15:08:45.908Z,3.70
2018-06-14T15:21:59.546Z,3.87
2018-06-14T15:24:28.018Z,3.97
2018-06-14T15:26:56.495Z,4.03
2018-06-14T15:29:25.314Z,3.65
2018-06-14T15:31:53.461Z,3.10
2018-06-14T15:34:21.966Z,3.87
2018-06-14T15:36:50.601Z,3.60
2018-06-14T15:39:19.084Z,3.63
2018-06-14T15:41:47.734Z,3.10
2018-06-14T15:44:16.906Z,3.00
2018-06-14T15:46:45.471Z,3.53
2018-06-14T15:57:26.530Z,3.62
2018-06-14T15:59:55.607Z,4.20
2018-06-14T16:02:24.352Z,4.20
2018-06-14T16:04:53.379Z,4.30
2018-06-14T16:07:21.826Z,3.47
2018-06-14T16:09:50.289Z,3.97
2018-06-14T16:12:18.790Z,4.23
2018-06-14T16:14:47.779Z,4.30
2018-06-14T16:17:17.438Z,4.20
2018-06-14T16:19:46.070Z,4.50
2018-06-14T16:41:44.163Z,5.03
2018-06-14T16:44:12.630Z,4.77
2018-06-14T16:46:41.106Z,5.00
2018-06-14T16:49:10.343Z,4.90
2018-06-14T16:51:38.977Z,4.27
2018-06-14T16:54:07.508Z,4.60
2018-06-14T16:56:36.152Z,4.93
2018-06-14T16:59:04.654Z,5.37
2018-06-14T17:01:33.918Z,5.28
2018-06-14T17:04:02.756Z,4.30
2018-06-14T17:06:31.207Z,5.20
2018-06-14T17:08:59.718Z,5.10
2018-06-14T17:11:28.202Z,5.00
2018-06-14T17:13:56.667Z,4.90
2018-06-14T17:16:25.106Z,4.83
2018-06-14T17:18:53.629Z,5.50
2018-06-14T17:21:22.122Z,4.53
2018-06-14T17:23:50.799Z,4.27
2018-06-14T17:26:19.892Z,4.63
2018-06-14T17:28:49.180Z,4.45
2018-06-14T17:31:17.875Z,5.28
2018-06-14T17:33:46.410Z,4.50
2018-06-14T17:42:26.140Z,5.40
2018-06-14T17:44:54.619Z,5.07
2018-06-14T17:47:23.119Z,4.85
2018-06-14T17:49:52.053Z,4.87
2018-06-14T17:52:20.783Z,5.72
2018-06-14T17:54:49.231Z,5.20
2018-06-14T17:57:17.779Z,5.30
2018-06-14T17:59:46.697Z,4.90
2018-06-14T18:21:42.591Z,5.60
2018-06-14T18:26:47.400Z,5.30
2018-06-14T18:29:17.442Z,4.95
2018-06-14T18:31:46.630Z,5.40
2018-06-14T18:49:55.666Z,5.40
2018-06-14T18:52:25.027Z,5.50
2018-06-14T18:54:53.522Z,5.73
2018-06-14T18:57:22.051Z,5.43
2018-06-14T18:59:50.554Z,6.30
2018-06-14T19:02:19.498Z,5.20
2018-06-14T19:04:48.046Z,5.30
2018-06-14T19:07:17.462Z,5.22
2018-06-14T19:09:45.650Z,5.60
2018-06-14T19:30:37.783Z,6.00
2018-06-14T19:33:06.263Z,5.67
2018-06-14T19:35:34.700Z,5.40
2018-06-14T19:38:03.244Z,5.87
2018-06-14T19:59:57.371Z,9.43
2018-06-14T20:05:40.995Z,9.43
2018-06-14T20:08:20.158Z,9.20
2018-06-14T20:10:53.227Z,9.20
2018-06-14T20:13:26.835Z,10.60
2018-06-14T20:16:06.587Z,8.93
2018-06-14T20:18:52.694Z,9.50
2018-06-14T20:21:34.075Z,9.27
2018-06-14T20:24:21.344Z,11.23
2018-06-14T20:29:48.854Z,10.37
2018-06-14T20:32:26.141Z,9.77
2018-06-14T20:35:10.013Z,10.60
2018-06-14T20:40:38.882Z,11.37
2018-06-14T20:43:15.628Z,10.90
2018-06-14T20:48:45.834Z,12.30
2018-06-14T21:00:36.362Z,12.67
2018-06-14T21:03:18.223Z,10.70
2018-06-14T21:08:32.026Z,11.17
2018-06-14T21:11:03.996Z,11.68
2018-06-14T21:13:56.945Z,12.57
2018-06-14T21:16:36.949Z,12.00
2018-06-14T21:19:09.430Z,11.80
2018-06-14T21:21:47.887Z,13.20
2018-06-14T21:24:31.903Z,13.15
2018-06-14T21:27:02.714Z,12.77
2018-06-14T21:29:46.265Z,12.90
2018-06-14T21:40:55.162Z,12.40
2018-06-14T21:43:35.650Z,11.30
2018-06-14T21:46:16.858Z,12.97
2018-06-14T21:49:01.172Z,13.10
2018-06-14T21:51:36.635Z,14.15
2018-06-14T21:54:21.282Z,13.90
2018-06-14T21:59:45.903Z,13.05
2018-06-14T22:11:23.283Z,13.88
2018-06-14T22:14:06.490Z,13.80
2018-06-14T22:16:48.168Z,13.68
2018-06-14T22:19:27.825Z,11.33
2018-06-14T22:22:06.159Z,11.90
2018-06-14T22:24:41.486Z,13.43
2018-06-14T22:27:20.058Z,12.47
2018-06-14T22:29:56.295Z,12.60
2018-06-14T22:32:34.264Z,13.32
2018-06-14T22:39:11.669Z,12.50
2018-06-14T22:41:54.823Z,13.77
2018-06-14T22:44:42.395Z,13.62
2018-06-14T22:47:19.059Z,12.07
2018-06-14T22:50:01.506Z,11.90
2018-06-14T22:53:06.151Z,13.17
2018-06-14T22:55:47.030Z,13.30
2018-06-14T23:10:25.666Z,14.67
2018-06-14T23:13:05.309Z,15.30
2018-06-14T23:15:47.908Z,14.60
2018-06-14T23:18:21.849Z,14.10
2018-06-14T23:20:59.071Z,14.30
2018-06-14T23:23:42.579Z,13.87
2018-06-14T23:26:23.006Z,13.03
2018-06-14T23:31:35.415Z,14.63
2018-06-14T23:34:15.599Z,15.17
2018-06-14T23:36:54.923Z,14.60
2018-06-14T23:39:40.546Z,18.02
2018-06-14T23:42:20.297Z,13.23
2018-06-14T23:44:56.583Z,14.93
2018-06-14T23:47:36.370Z,15.55
2018-06-14T23:50:17.752Z,15.93
2018-06-14T23:52:53.231Z,13.00
2018-06-14T23:55:31.569Z,13.26
2018-06-14T23:58:12.247Z,12.40
